createdAt,value
2022-12-04T00:05:25.071Z,29.60
2022-12-04T00:15:28.350Z,24.50
2022-12-04T00:25:34.206Z,26.80
2022-12-04T00:35:41.437Z,29.00
2022-12-04T00:45:44.583Z,29.00
2022-12-04T00:55:47.796Z,27.20
2022-12-04T01:05:50.906Z,30.60
2022-12-04T01:15:54.333Z,28.40
2022-12-04T01:25:59.277Z,27.20
2022-12-04T01:36:05.380Z,27.30
2022-12-04T01:46:09.866Z,23.00
2022-12-04T02:06:17.133Z,25.60
2022-12-04T02:16:41.200Z,25.70
2022-12-04T02:26:58.520Z,24.80
2022-12-04T02:37:27.883Z,23.10
2022-12-04T02:47:33.564Z,24.60
2022-12-04T02:57:42.744Z,23.20
2022-12-04T03:08:04.673Z,22.40
2022-12-04T03:18:23.304Z,25.10
2022-12-04T03:28:34.113Z,24.20
2022-12-04T03:39:18.065Z,25.20
2022-12-04T03:49:42.444Z,23.60
2022-12-04T03:59:56.137Z,26.00
2022-12-04T04:10:06.457Z,25.40
2022-12-04T04:20:33.910Z,19.40
2022-12-04T04:30:37.172Z,23.30
2022-12-04T04:40:56.417Z,25.40
2022-12-04T04:51:02.413Z,24.80
2022-12-04T05:01:10.563Z,24.80
2022-12-04T05:11:15.695Z,24.90
2022-12-04T05:21:18.797Z,23.30
2022-12-04T05:31:21.997Z,22.80
2022-12-04T05:41:25.349Z,22.70
2022-12-04T05:51:28.611Z,21.30
2022-12-04T06:01:31.991Z,21.70
2022-12-04T06:11:38.017Z,22.40
2022-12-04T06:21:42.918Z,21.10
2022-12-04T06:31:46.064Z,20.50
2022-12-04T06:41:49.273Z,21.40
2022-12-04T06:51:52.427Z,23.80
2022-12-04T07:01:55.637Z,23.40
2022-12-04T07:11:58.822Z,22.80
2022-12-04T07:22:01.915Z,20.30
2022-12-04T07:32:05.219Z,23.50
2022-12-04T07:42:08.354Z,22.60
2022-12-04T07:52:11.462Z,22.80
2022-12-04T08:02:14.577Z,21.40
2022-12-04T08:12:17.760Z,22.90
2022-12-04T08:22:25.023Z,23.00
2022-12-04T08:32:28.592Z,22.50
2022-12-04T08:42:31.754Z,21.40
2022-12-04T08:52:34.930Z,22.50
2022-12-04T09:02:38.320Z,21.60
2022-12-04T09:12:41.689Z,21.30
2022-12-04T09:23:02.699Z,21.90
2022-12-04T09:33:06.382Z,22.40
2022-12-04T09:43:18.241Z,21.30
2022-12-04T09:53:28.979Z,20.10
2022-12-04T10:03:32.268Z,21.60
2022-12-04T10:14:13.619Z,22.70
2022-12-04T10:24:29.072Z,22.10
2022-12-04T10:34:32.590Z,21.70
2022-12-04T10:44:35.687Z,22.30
2022-12-04T10:54:43.710Z,20.20
2022-12-04T11:05:00.627Z,22.40
2022-12-04T11:15:06.964Z,19.60
2022-12-04T11:25:18.751Z,19.10
2022-12-04T11:35:25.064Z,19.80
2022-12-04T11:45:28.408Z,18.90
2022-12-04T11:55:44.910Z,19.70
2022-12-04T12:06:04.176Z,16.60
2022-12-04T12:16:07.426Z,20.10
2022-12-04T12:26:14.506Z,18.50
2022-12-04T12:36:22.128Z,17.80
2022-12-04T12:46:33.202Z,19.60
2022-12-04T12:56:44.798Z,21.60
2022-12-04T13:07:08.485Z,20.50
2022-12-04T13:17:16.198Z,18.80
2022-12-04T13:27:28.706Z,20.20
2022-12-04T13:38:02.865Z,23.30
2022-12-04T13:48:06.305Z,25.10
2022-12-04T13:58:12.489Z,22.70
2022-12-04T14:08:21.491Z,24.60
2022-12-04T14:18:30.276Z,20.40
2022-12-04T14:28:41.925Z,19.60
2022-12-04T14:38:49.081Z,19.40
2022-12-04T14:49:11.047Z,22.80
2022-12-04T14:59:20.036Z,22.80
2022-12-04T15:09:43.418Z,19.80
2022-12-04T15:19:46.951Z,21.30
2022-12-04T15:29:52.504Z,21.10
2022-12-04T15:39:57.528Z,23.70
2022-12-04T15:50:16.416Z,21.50
2022-12-04T16:00:23.981Z,22.00
2022-12-04T16:10:33.400Z,20.80
2022-12-04T16:20:38.667Z,20.20
2022-12-04T16:30:42.170Z,21.60
2022-12-04T16:40:47.260Z,23.00
2022-12-04T16:50:51.280Z,22.40
2022-12-04T17:00:56.461Z,20.80
2022-12-04T17:10:59.594Z,20.20
2022-12-04T17:21:07.502Z,21.70
2022-12-04T17:31:18.585Z,19.70
2022-12-04T17:41:22.125Z,20.40
2022-12-04T17:51:25.404Z,22.00
2022-12-04T18:01:29.649Z,22.30
2022-12-04T18:11:35.351Z,21.10
2022-12-04T18:21:39.193Z,19.10
2022-12-04T18:31:42.539Z,23.20
2022-12-04T18:41:47.250Z,21.10
2022-12-04T18:51:50.631Z,21.90
2022-12-04T19:01:55.042Z,18.90
2022-12-04T19:11:59.380Z,19.90
2022-12-04T19:22:03.944Z,19.00
2022-12-04T19:42:11.349Z,19.90
2022-12-04T19:52:14.941Z,18.30
2022-12-04T20:02:19.928Z,19.20
2022-12-04T20:12:24.683Z,18.00
2022-12-04T20:22:27.854Z,16.70
2022-12-04T20:32:31.012Z,17.90
2022-12-04T20:42:35.308Z,18.30
2022-12-04T20:52:38.773Z,15.90
2022-12-04T21:02:43.695Z,15.00
2022-12-04T21:13:05.997Z,16.10
2022-12-04T21:23:09.128Z,16.60
2022-12-04T21:33:12.394Z,15.20
2022-12-04T21:43:15.631Z,17.70
2022-12-04T21:53:18.812Z,14.30
2022-12-04T22:03:22.059Z,15.10
2022-12-04T22:13:25.380Z,14.50
2022-12-04T22:23:28.577Z,18.40
2022-12-04T22:33:32.780Z,16.90
2022-12-04T22:43:40.712Z,16.00
2022-12-04T22:53:53.072Z,15.40
2022-12-04T23:03:57.391Z,15.90
2022-12-04T23:14:03.188Z,16.60
2022-12-04T23:24:07.103Z,15.50
2022-12-04T23:34:10.447Z,16.60
2022-12-04T23:44:13.682Z,18.50
2022-12-04T23:54:16.762Z,17.40
